sensor_id;sensor_type;location;lat;lon;timestamp;P1;durP1;ratioP1;P2;durP2;ratioP2
38591;SDS011;24356;48.460;11.450;2023-03-11T00:00:26;1.38;;;1.20;;
38591;SDS011;24356;48.460;11.450;2023-03-11T00:02:55;1.67;;;1.42;;
38591;SDS011;24356;48.460;11.450;2023-03-11T00:05:23;1.73;;;1.23;;
38591;SDS011;24356;48.460;11.450;2023-03-11T00:07:51;1.50;;;1.10;;
38591;SDS011;24356;48.460;11.450;2023-03-11T00:10:21;2.10;;;1.30;;
38591;SDS011;24356;48.460;11.450;2023-03-11T00:12:49;1.55;;;1.30;;
38591;SDS011;24356;48.460;11.450;2023-03-11T00:15:16;1.25;;;1.08;;
38591;SDS011;24356;48.460;11.450;2023-03-11T00:17:42;4.35;;;1.50;;
38591;SDS011;24356;48.460;11.450;2023-03-11T00:20:13;1.60;;;1.15;;
38591;SDS011;24356;48.460;11.450;2023-03-11T00:22:45;1.92;;;1.30;;
38591;SDS011;24356;48.460;11.450;2023-03-11T00:25:11;1.83;;;1.33;;
38591;SDS011;24356;48.460;11.450;2023-03-11T00:27:37;1.40;;;1.20;;
38591;SDS011;24356;48.460;11.450;2023-03-11T00:30:04;1.30;;;1.20;;
38591;SDS011;24356;48.460;11.450;2023-03-11T00:32:30;1.20;;;1.10;;
38591;SDS011;24356;48.460;11.450;2023-03-11T00:34:56;1.70;;;1.10;;
38591;SDS011;24356;48.460;11.450;2023-03-11T00:37:22;1.20;;;1.10;;
38591;SDS011;24356;48.460;11.450;2023-03-11T00:39:47;1.98;;;1.33;;
38591;SDS011;24356;48.460;11.450;2023-03-11T00:42:13;1.70;;;1.30;;
38591;SDS011;24356;48.460;11.450;2023-03-11T00:44:38;1.80;;;1.20;;
38591;SDS011;24356;48.460;11.450;2023-03-11T00:47:04;2.72;;;1.10;;
38591;SDS011;24356;48.460;11.450;2023-03-11T00:49:29;2.00;;;1.08;;
38591;SDS011;24356;48.460;11.450;2023-03-11T00:51:55;1.30;;;1.20;;
38591;SDS011;24356;48.460;11.450;2023-03-11T00:54:21;1.20;;;0.98;;
38591;SDS011;24356;48.460;11.450;2023-03-11T00:56:46;1.00;;;0.85;;
38591;SDS011;24356;48.460;11.450;2023-03-11T00:59:12;1.35;;;0.85;;
38591;SDS011;24356;48.460;11.450;2023-03-11T01:01:37;1.23;;;1.13;;
38591;SDS011;24356;48.460;11.450;2023-03-11T01:04:03;2.53;;;1.60;;
38591;SDS011;24356;48.460;11.450;2023-03-11T01:06:30;1.48;;;1.10;;
38591;SDS011;24356;48.460;11.450;2023-03-11T01:08:56;3.42;;;1.63;;
38591;SDS011;24356;48.460;11.450;2023-03-11T01:11:21;1.20;;;1.10;;
38591;SDS011;24356;48.460;11.450;2023-03-11T01:13:47;2.22;;;1.10;;
38591;SDS011;24356;48.460;11.450;2023-03-11T01:16:13;2.72;;;1.40;;
38591;SDS011;24356;48.460;11.450;2023-03-11T01:18:38;1.58;;;1.33;;
38591;SDS011;24356;48.460;11.450;2023-03-11T01:21:04;1.58;;;1.17;;
38591;SDS011;24356;48.460;11.450;2023-03-11T01:23:29;1.30;;;1.20;;
38591;SDS011;24356;48.460;11.450;2023-03-11T01:25:56;1.83;;;1.33;;
38591;SDS011;24356;48.460;11.450;2023-03-11T01:28:22;2.00;;;1.40;;
38591;SDS011;24356;48.460;11.450;2023-03-11T01:30:48;1.63;;;1.30;;
38591;SDS011;24356;48.460;11.450;2023-03-11T01:33:15;1.30;;;1.20;;
38591;SDS011;24356;48.460;11.450;2023-03-11T01:35:42;1.75;;;1.40;;
38591;SDS011;24356;48.460;11.450;2023-03-11T01:38:10;2.10;;;1.40;;
38591;SDS011;24356;48.460;11.450;2023-03-11T01:40:40;0.90;;;0.90;;
38591;SDS011;24356;48.460;11.450;2023-03-11T01:48:33;2.30;;;1.02;;
38591;SDS011;24356;48.460;11.450;2023-03-11T01:50:59;1.38;;;1.25;;
38591;SDS011;24356;48.460;11.450;2023-03-11T01:53:25;1.80;;;1.30;;
38591;SDS011;24356;48.460;11.450;2023-03-11T01:55:51;1.40;;;1.30;;
38591;SDS011;24356;48.460;11.450;2023-03-11T01:58:18;1.13;;;1.02;;
38591;SDS011;24356;48.460;11.450;2023-03-11T02:00:48;1.45;;;1.25;;
38591;SDS011;24356;48.460;11.450;2023-03-11T02:03:20;1.38;;;1.27;;
38591;SDS011;24356;48.460;11.450;2023-03-11T02:05:51;1.35;;;1.17;;
38591;SDS011;24356;48.460;11.450;2023-03-11T02:08:18;1.30;;;1.20;;
38591;SDS011;24356;48.460;11.450;2023-03-11T02:10:43;1.83;;;1.55;;
38591;SDS011;24356;48.460;11.450;2023-03-11T02:13:10;2.33;;;1.50;;
38591;SDS011;24356;48.460;11.450;2023-03-11T02:15:36;1.88;;;1.27;;
38591;SDS011;24356;48.460;11.450;2023-03-11T02:18:02;1.52;;;1.10;;
38591;SDS011;24356;48.460;11.450;2023-03-11T02:23:45;1.30;;;1.10;;
38591;SDS011;24356;48.460;11.450;2023-03-11T02:26:23;1.02;;;0.93;;
38591;SDS011;24356;48.460;11.450;2023-03-11T02:28:54;5.40;;;1.20;;
38591;SDS011;24356;48.460;11.450;2023-03-11T02:31:22;2.33;;;1.13;;
38591;SDS011;24356;48.460;11.450;2023-03-11T02:33:49;2.25;;;1.20;;
38591;SDS011;24356;48.460;11.450;2023-03-11T02:36:40;2.83;;;1.20;;
38591;SDS011;24356;48.460;11.450;2023-03-11T02:39:07;1.40;;;1.00;;
38591;SDS011;24356;48.460;11.450;2023-03-11T02:41:34;1.40;;;1.20;;
38591;SDS011;24356;48.460;11.450;2023-03-11T02:44:08;1.77;;;1.10;;
38591;SDS011;24356;48.460;11.450;2023-03-11T02:46:36;1.35;;;1.20;;
38591;SDS011;24356;48.460;11.450;2023-03-11T02:49:04;1.20;;;1.10;;
38591;SDS011;24356;48.460;11.450;2023-03-11T02:51:30;6.43;;;1.20;;
38591;SDS011;24356;48.460;11.450;2023-03-11T02:53:56;2.47;;;1.05;;
38591;SDS011;24356;48.460;11.450;2023-03-11T02:56:25;1.83;;;1.00;;
38591;SDS011;24356;48.460;11.450;2023-03-11T02:58:51;1.02;;;0.90;;
38591;SDS011;24356;48.460;11.450;2023-03-11T03:01:16;2.58;;;1.30;;
38591;SDS011;24356;48.460;11.450;2023-03-11T03:03:42;1.17;;;1.00;;
38591;SDS011;24356;48.460;11.450;2023-03-11T03:06:08;2.00;;;1.00;;
38591;SDS011;24356;48.460;11.450;2023-03-11T03:08:37;1.52;;;1.10;;
38591;SDS011;24356;48.460;11.450;2023-03-11T03:11:03;1.30;;;1.00;;
38591;SDS011;24356;48.460;11.450;2023-03-11T03:13:29;1.05;;;0.93;;
38591;SDS011;24356;48.460;11.450;2023-03-11T03:15:57;1.00;;;0.88;;
38591;SDS011;24356;48.460;11.450;2023-03-11T03:18:23;1.65;;;1.20;;
38591;SDS011;24356;48.460;11.450;2023-03-11T03:20:49;1.13;;;0.90;;
38591;SDS011;24356;48.460;11.450;2023-03-11T03:23:15;2.42;;;0.90;;
38591;SDS011;24356;48.460;11.450;2023-03-11T03:25:41;1.00;;;0.85;;
38591;SDS011;24356;48.460;11.450;2023-03-11T03:28:08;1.50;;;1.20;;
38591;SDS011;24356;48.460;11.450;2023-03-11T03:30:34;2.15;;;1.23;;
38591;SDS011;24356;48.460;11.450;2023-03-11T03:35:42;1.67;;;1.00;;
38591;SDS011;24356;48.460;11.450;2023-03-11T03:38:08;0.90;;;0.90;;
38591;SDS011;24356;48.460;11.450;2023-03-11T03:40:34;1.83;;;1.35;;
38591;SDS011;24356;48.460;11.450;2023-03-11T03:42:59;1.50;;;1.23;;
38591;SDS011;24356;48.460;11.450;2023-03-11T03:45:25;2.38;;;1.10;;
38591;SDS011;24356;48.460;11.450;2023-03-11T03:47:50;2.40;;;1.30;;
38591;SDS011;24356;48.460;11.450;2023-03-11T03:50:16;1.67;;;1.30;;
38591;SDS011;24356;48.460;11.450;2023-03-11T03:52:42;1.20;;;1.02;;
38591;SDS011;24356;48.460;11.450;2023-03-11T03:55:08;1.50;;;1.20;;
38591;SDS011;24356;48.460;11.450;2023-03-11T03:57:33;1.52;;;1.20;;
38591;SDS011;24356;48.460;11.450;2023-03-11T03:59:59;2.03;;;1.20;;
38591;SDS011;24356;48.460;11.450;2023-03-11T04:02:25;2.20;;;1.42;;
38591;SDS011;24356;48.460;11.450;2023-03-11T04:04:50;2.38;;;1.20;;
38591;SDS011;24356;48.460;11.450;2023-03-11T04:07:16;1.80;;;1.30;;
38591;SDS011;24356;48.460;11.450;2023-03-11T04:09:42;1.95;;;1.40;;
38591;SDS011;24356;48.460;11.450;2023-03-11T04:12:14;1.67;;;1.20;;
38591;SDS011;24356;48.460;11.450;2023-03-11T04:14:41;3.00;;;1.33;;
38591;SDS011;24356;48.460;11.450;2023-03-11T04:17:08;3.67;;;1.40;;
38591;SDS011;24356;48.460;11.450;2023-03-11T04:19:36;1.98;;;1.60;;
38591;SDS011;24356;48.460;11.450;2023-03-11T04:22:01;1.48;;;1.20;;
38591;SDS011;24356;48.460;11.450;2023-03-11T04:24:27;2.38;;;1.40;;
38591;SDS011;24356;48.460;11.450;2023-03-11T04:26:52;2.35;;;1.40;;
38591;SDS011;24356;48.460;11.450;2023-03-11T04:29:18;2.05;;;1.23;;
38591;SDS011;24356;48.460;11.450;2023-03-11T04:31:43;2.03;;;1.40;;
38591;SDS011;24356;48.460;11.450;2023-03-11T04:34:09;2.22;;;1.38;;
38591;SDS011;24356;48.460;11.450;2023-03-11T04:36:35;2.88;;;1.30;;
38591;SDS011;24356;48.460;11.450;2023-03-11T04:39:00;1.05;;;0.90;;
38591;SDS011;24356;48.460;11.450;2023-03-11T04:41:26;3.00;;;1.20;;
38591;SDS011;24356;48.460;11.450;2023-03-11T04:43:51;2.30;;;1.05;;
38591;SDS011;24356;48.460;11.450;2023-03-11T04:46:17;2.17;;;1.20;;
38591;SDS011;24356;48.460;11.450;2023-03-11T04:48:43;3.03;;;1.20;;
38591;SDS011;24356;48.460;11.450;2023-03-11T04:51:08;3.00;;;1.30;;
38591;SDS011;24356;48.460;11.450;2023-03-11T04:53:34;1.42;;;1.05;;
38591;SDS011;24356;48.460;11.450;2023-03-11T04:56:00;2.25;;;1.58;;
38591;SDS011;24356;48.460;11.450;2023-03-11T04:58:25;2.13;;;1.10;;
38591;SDS011;24356;48.460;11.450;2023-03-11T05:00:51;4.57;;;1.90;;
38591;SDS011;24356;48.460;11.450;2023-03-11T05:03:17;3.22;;;1.38;;
38591;SDS011;24356;48.460;11.450;2023-03-11T05:05:43;4.28;;;1.90;;
38591;SDS011;24356;48.460;11.450;2023-03-11T05:08:09;1.38;;;1.25;;
38591;SDS011;24356;48.460;11.450;2023-03-11T05:10:36;2.10;;;1.10;;
38591;SDS011;24356;48.460;11.450;2023-03-11T05:13:04;1.35;;;0.98;;
38591;SDS011;24356;48.460;11.450;2023-03-11T05:15:30;1.85;;;0.88;;
38591;SDS011;24356;48.460;11.450;2023-03-11T05:17:56;3.70;;;0.95;;
38591;SDS011;24356;48.460;11.450;2023-03-11T05:20:21;1.20;;;0.88;;
38591;SDS011;24356;48.460;11.450;2023-03-11T05:22:47;1.00;;;0.80;;
38591;SDS011;24356;48.460;11.450;2023-03-11T05:25:13;1.85;;;0.98;;
38591;SDS011;24356;48.460;11.450;2023-03-11T05:27:38;1.08;;;0.73;;
38591;SDS011;24356;48.460;11.450;2023-03-11T05:30:05;1.38;;;1.02;;
38591;SDS011;24356;48.460;11.450;2023-03-11T05:32:33;2.67;;;1.25;;
38591;SDS011;24356;48.460;11.450;2023-03-11T05:34:58;1.25;;;0.80;;
38591;SDS011;24356;48.460;11.450;2023-03-11T05:37:24;0.98;;;0.80;;
38591;SDS011;24356;48.460;11.450;2023-03-11T05:39:51;1.45;;;0.63;;
38591;SDS011;24356;48.460;11.450;2023-03-11T05:42:16;3.78;;;1.10;;
38591;SDS011;24356;48.460;11.450;2023-03-11T05:44:42;1.17;;;0.73;;
38591;SDS011;24356;48.460;11.450;2023-03-11T05:47:08;3.63;;;0.80;;
38591;SDS011;24356;48.460;11.450;2023-03-11T05:49:33;2.20;;;0.60;;
38591;SDS011;24356;48.460;11.450;2023-03-11T05:51:59;0.68;;;0.60;;
38591;SDS011;24356;48.460;11.450;2023-03-11T05:54:24;1.63;;;0.85;;
38591;SDS011;24356;48.460;11.450;2023-03-11T05:56:50;2.40;;;0.70;;
38591;SDS011;24356;48.460;11.450;2023-03-11T05:59:16;1.55;;;0.77;;
38591;SDS011;24356;48.460;11.450;2023-03-11T06:01:42;2.35;;;0.80;;
38591;SDS011;24356;48.460;11.450;2023-03-11T06:04:11;1.60;;;0.80;;
38591;SDS011;24356;48.460;11.450;2023-03-11T06:06:37;2.53;;;0.95;;
38591;SDS011;24356;48.460;11.450;2023-03-11T06:09:05;4.00;;;0.98;;
38591;SDS011;24356;48.460;11.450;2023-03-11T06:11:31;3.22;;;0.75;;
38591;SDS011;24356;48.460;11.450;2023-03-11T06:13:57;2.95;;;1.02;;
38591;SDS011;24356;48.460;11.450;2023-03-11T06:16:23;4.25;;;1.10;;
38591;SDS011;24356;48.460;11.450;2023-03-11T06:18:50;3.22;;;1.10;;
38591;SDS011;24356;48.460;11.450;2023-03-11T06:21:17;4.60;;;1.50;;
38591;SDS011;24356;48.460;11.450;2023-03-11T06:23:44;3.85;;;1.20;;
38591;SDS011;24356;48.460;11.450;2023-03-11T06:26:14;4.57;;;1.13;;
38591;SDS011;24356;48.460;11.450;2023-03-11T06:28:43;3.80;;;1.30;;
38591;SDS011;24356;48.460;11.450;2023-03-11T06:31:09;2.33;;;1.00;;
38591;SDS011;24356;48.460;11.450;2023-03-11T06:33:39;3.95;;;1.17;;
38591;SDS011;24356;48.460;11.450;2023-03-11T06:36:05;4.45;;;0.90;;
38591;SDS011;24356;48.460;11.450;2023-03-11T06:38:32;3.08;;;0.95;;
38591;SDS011;24356;48.460;11.450;2023-03-11T06:41:02;2.80;;;1.02;;
38591;SDS011;24356;48.460;11.450;2023-03-11T06:43:30;3.67;;;0.98;;
38591;SDS011;24356;48.460;11.450;2023-03-11T06:45:57;4.65;;;1.20;;
38591;SDS011;24356;48.460;11.450;2023-03-11T06:48:23;4.03;;;1.70;;
38591;SDS011;24356;48.460;11.450;2023-03-11T06:50:59;2.47;;;1.27;;
38591;SDS011;24356;48.460;11.450;2023-03-11T06:53:26;1.90;;;0.95;;
38591;SDS011;24356;48.460;11.450;2023-03-11T06:55:56;1.10;;;1.00;;
38591;SDS011;24356;48.460;11.450;2023-03-11T06:58:34;5.00;;;1.45;;
38591;SDS011;24356;48.460;11.450;2023-03-11T07:01:22;3.92;;;1.08;;
38591;SDS011;24356;48.460;11.450;2023-03-11T07:03:48;1.90;;;1.08;;
38591;SDS011;24356;48.460;11.450;2023-03-11T07:06:16;1.58;;;1.00;;
38591;SDS011;24356;48.460;11.450;2023-03-11T07:08:47;1.98;;;1.13;;
38591;SDS011;24356;48.460;11.450;2023-03-11T07:11:16;2.33;;;0.95;;
38591;SDS011;24356;48.460;11.450;2023-03-11T07:13:46;1.73;;;0.90;;
38591;SDS011;24356;48.460;11.450;2023-03-11T07:16:23;2.47;;;0.80;;
38591;SDS011;24356;48.460;11.450;2023-03-11T07:18:51;3.00;;;1.00;;
38591;SDS011;24356;48.460;11.450;2023-03-11T07:21:19;3.85;;;1.00;;
38591;SDS011;24356;48.460;11.450;2023-03-11T07:23:46;4.80;;;1.67;;
38591;SDS011;24356;48.460;11.450;2023-03-11T07:26:16;3.67;;;1.27;;
38591;SDS011;24356;48.460;11.450;2023-03-11T07:28:42;6.10;;;1.20;;
38591;SDS011;24356;48.460;11.450;2023-03-11T07:31:12;2.72;;;0.85;;
38591;SDS011;24356;48.460;11.450;2023-03-11T07:33:39;3.70;;;0.90;;
38591;SDS011;24356;48.460;11.450;2023-03-11T07:36:06;2.70;;;1.10;;
38591;SDS011;24356;48.460;11.450;2023-03-11T07:38:33;3.00;;;0.88;;
38591;SDS011;24356;48.460;11.450;2023-03-11T07:40:59;3.55;;;0.93;;
38591;SDS011;24356;48.460;11.450;2023-03-11T07:43:25;2.45;;;1.30;;
38591;SDS011;24356;48.460;11.450;2023-03-11T07:45:54;2.45;;;0.98;;
38591;SDS011;24356;48.460;11.450;2023-03-11T07:48:34;6.07;;;1.10;;
38591;SDS011;24356;48.460;11.450;2023-03-11T07:51:05;4.05;;;1.00;;
38591;SDS011;24356;48.460;11.450;2023-03-11T07:53:42;2.38;;;0.82;;
38591;SDS011;24356;48.460;11.450;2023-03-11T07:56:09;3.13;;;0.90;;
38591;SDS011;24356;48.460;11.450;2023-03-11T07:58:36;2.83;;;1.00;;
38591;SDS011;24356;48.460;11.450;2023-03-11T08:01:06;2.80;;;0.82;;
38591;SDS011;24356;48.460;11.450;2023-03-11T08:03:33;4.88;;;0.95;;
38591;SDS011;24356;48.460;11.450;2023-03-11T08:05:59;4.80;;;0.95;;
38591;SDS011;24356;48.460;11.450;2023-03-11T08:08:24;2.70;;;1.00;;
38591;SDS011;24356;48.460;11.450;2023-03-11T08:10:50;4.03;;;0.63;;
38591;SDS011;24356;48.460;11.450;2023-03-11T08:13:16;1.63;;;0.90;;
38591;SDS011;24356;48.460;11.450;2023-03-11T08:15:41;3.13;;;0.85;;
38591;SDS011;24356;48.460;11.450;2023-03-11T08:18:07;3.53;;;0.90;;
38591;SDS011;24356;48.460;11.450;2023-03-11T08:20:33;3.78;;;1.08;;
38591;SDS011;24356;48.460;11.450;2023-03-11T08:23:01;1.95;;;0.80;;
38591;SDS011;24356;48.460;11.450;2023-03-11T08:25:26;2.40;;;0.75;;
38591;SDS011;24356;48.460;11.450;2023-03-11T08:27:52;2.13;;;0.90;;
38591;SDS011;24356;48.460;11.450;2023-03-11T08:30:17;1.73;;;0.85;;
38591;SDS011;24356;48.460;11.450;2023-03-11T08:32:43;2.75;;;1.33;;
38591;SDS011;24356;48.460;11.450;2023-03-11T08:35:09;1.67;;;1.10;;
38591;SDS011;24356;48.460;11.450;2023-03-11T08:37:35;3.25;;;0.95;;
38591;SDS011;24356;48.460;11.450;2023-03-11T08:40:00;3.25;;;0.82;;
38591;SDS011;24356;48.460;11.450;2023-03-11T08:42:26;2.40;;;1.10;;
38591;SDS011;24356;48.460;11.450;2023-03-11T08:44:52;1.80;;;0.70;;
38591;SDS011;24356;48.460;11.450;2023-03-11T08:47:17;1.88;;;1.10;;
38591;SDS011;24356;48.460;11.450;2023-03-11T08:49:43;2.97;;;1.02;;
38591;SDS011;24356;48.460;11.450;2023-03-11T08:52:08;2.83;;;0.90;;
38591;SDS011;24356;48.460;11.450;2023-03-11T08:54:34;3.58;;;1.00;;
38591;SDS011;24356;48.460;11.450;2023-03-11T08:57:00;3.80;;;0.98;;
38591;SDS011;24356;48.460;11.450;2023-03-11T08:59:30;3.42;;;0.88;;
38591;SDS011;24356;48.460;11.450;2023-03-11T09:01:56;2.10;;;0.90;;
38591;SDS011;24356;48.460;11.450;2023-03-11T09:04:22;4.18;;;0.98;;
38591;SDS011;24356;48.460;11.450;2023-03-11T09:06:47;2.40;;;0.90;;
38591;SDS011;24356;48.460;11.450;2023-03-11T09:09:13;1.48;;;1.02;;
38591;SDS011;24356;48.460;11.450;2023-03-11T09:11:40;3.88;;;1.00;;
38591;SDS011;24356;48.460;11.450;2023-03-11T09:14:06;1.88;;;0.95;;
38591;SDS011;24356;48.460;11.450;2023-03-11T09:16:32;2.75;;;1.17;;
38591;SDS011;24356;48.460;11.450;2023-03-11T09:18:57;2.17;;;0.80;;
38591;SDS011;24356;48.460;11.450;2023-03-11T09:21:30;3.22;;;1.08;;
38591;SDS011;24356;48.460;11.450;2023-03-11T09:24:00;1.65;;;0.75;;
38591;SDS011;24356;48.460;11.450;2023-03-11T09:26:28;2.20;;;0.95;;
38591;SDS011;24356;48.460;11.450;2023-03-11T09:28:54;1.90;;;1.00;;
38591;SDS011;24356;48.460;11.450;2023-03-11T09:31:20;3.83;;;1.23;;
38591;SDS011;24356;48.460;11.450;2023-03-11T09:33:45;3.55;;;1.00;;
38591;SDS011;24356;48.460;11.450;2023-03-11T09:36:12;2.83;;;1.13;;
38591;SDS011;24356;48.460;11.450;2023-03-11T09:38:40;2.10;;;1.00;;
38591;SDS011;24356;48.460;11.450;2023-03-11T09:41:30;5.97;;;1.40;;
38591;SDS011;24356;48.460;11.450;2023-03-11T09:51:45;5.80;;;1.25;;
38591;SDS011;24356;48.460;11.450;2023-03-11T09:54:21;1.88;;;1.00;;
38591;SDS011;24356;48.460;11.450;2023-03-11T09:56:47;3.33;;;1.17;;
38591;SDS011;24356;48.460;11.450;2023-03-11T09:59:29;3.58;;;1.58;;
38591;SDS011;24356;48.460;11.450;2023-03-11T10:01:56;2.75;;;1.40;;
38591;SDS011;24356;48.460;11.450;2023-03-11T10:04:27;2.00;;;1.10;;
38591;SDS011;24356;48.460;11.450;2023-03-11T10:07:11;1.85;;;1.13;;
38591;SDS011;24356;48.460;11.450;2023-03-11T10:09:55;2.17;;;1.05;;
38591;SDS011;24356;48.460;11.450;2023-03-11T10:15:32;4.53;;;1.70;;
38591;SDS011;24356;48.460;11.450;2023-03-11T10:21:22;3.90;;;1.40;;
38591;SDS011;24356;48.460;11.450;2023-03-11T10:24:13;7.18;;;1.70;;
38591;SDS011;24356;48.460;11.450;2023-03-11T10:26:46;3.20;;;1.20;;
38591;SDS011;24356;48.460;11.450;2023-03-11T10:29:20;4.25;;;1.30;;
38591;SDS011;24356;48.460;11.450;2023-03-11T10:31:59;1.88;;;1.25;;
38591;SDS011;24356;48.460;11.450;2023-03-11T10:35:13;4.80;;;1.50;;
38591;SDS011;24356;48.460;11.450;2023-03-11T10:42:56;5.13;;;1.27;;
38591;SDS011;24356;48.460;11.450;2023-03-11T10:45:32;4.72;;;1.38;;
38591;SDS011;24356;48.460;11.450;2023-03-11T10:48:07;3.55;;;1.00;;
38591;SDS011;24356;48.460;11.450;2023-03-11T10:50:35;5.13;;;1.25;;
38591;SDS011;24356;48.460;11.450;2023-03-11T10:53:08;3.78;;;1.35;;
38591;SDS011;24356;48.460;11.450;2023-03-11T10:55:43;2.03;;;1.00;;
38591;SDS011;24356;48.460;11.450;2023-03-11T10:58:18;5.00;;;1.33;;
38591;SDS011;24356;48.460;11.450;2023-03-11T11:01:01;4.78;;;1.70;;
38591;SDS011;24356;48.460;11.450;2023-03-11T11:03:33;4.53;;;1.50;;
38591;SDS011;24356;48.460;11.450;2023-03-11T11:06:03;6.93;;;1.80;;
38591;SDS011;24356;48.460;11.450;2023-03-11T11:08:30;2.17;;;1.20;;
38591;SDS011;24356;48.460;11.450;2023-03-11T11:10:58;5.45;;;1.38;;
38591;SDS011;24356;48.460;11.450;2023-03-11T11:13:29;2.85;;;1.15;;
38591;SDS011;24356;48.460;11.450;2023-03-11T11:24:21;17.35;;;3.92;;
38591;SDS011;24356;48.460;11.450;2023-03-11T11:32:32;5.38;;;1.58;;
38591;SDS011;24356;48.460;11.450;2023-03-11T11:34:59;3.78;;;1.75;;
38591;SDS011;24356;48.460;11.450;2023-03-11T11:37:31;4.40;;;1.60;;
38591;SDS011;24356;48.460;11.450;2023-03-11T11:40:46;4.57;;;1.73;;
38591;SDS011;24356;48.460;11.450;2023-03-11T11:43:00;19.15;;;5.55;;
38591;SDS011;24356;48.460;11.450;2023-03-11T11:45:43;8.73;;;2.47;;
38591;SDS011;24356;48.460;11.450;2023-03-11T11:48:13;12.55;;;3.83;;
38591;SDS011;24356;48.460;11.450;2023-03-11T11:50:55;14.18;;;3.47;;
38591;SDS011;24356;48.460;11.450;2023-03-11T11:53:37;15.02;;;4.93;;
38591;SDS011;24356;48.460;11.450;2023-03-11T11:56:08;17.45;;;6.15;;
38591;SDS011;24356;48.460;11.450;2023-03-11T11:58:34;10.93;;;4.40;;
38591;SDS011;24356;48.460;11.450;2023-03-11T12:09:20;5.55;;;2.00;;
38591;SDS011;24356;48.460;11.450;2023-03-11T12:14:54;2.60;;;1.50;;
38591;SDS011;24356;48.460;11.450;2023-03-11T12:17:26;2.90;;;1.67;;
38591;SDS011;24356;48.460;11.450;2023-03-11T12:19:59;4.93;;;2.05;;
38591;SDS011;24356;48.460;11.450;2023-03-11T12:27:58;3.53;;;1.13;;
38591;SDS011;24356;48.460;11.450;2023-03-11T12:30:29;4.05;;;1.35;;
38591;SDS011;24356;48.460;11.450;2023-03-11T12:34:01;1.90;;;1.20;;
38591;SDS011;24356;48.460;11.450;2023-03-11T12:35:59;2.25;;;1.20;;
38591;SDS011;24356;48.460;11.450;2023-03-11T12:45:59;4.57;;;1.20;;
38591;SDS011;24356;48.460;11.450;2023-03-11T12:53:50;3.47;;;1.20;;
38591;SDS011;24356;48.460;11.450;2023-03-11T12:59:07;3.75;;;1.27;;
38591;SDS011;24356;48.460;11.450;2023-03-11T13:04:39;2.28;;;1.30;;
38591;SDS011;24356;48.460;11.450;2023-03-11T13:10:14;3.50;;;1.42;;
38591;SDS011;24356;48.460;11.450;2023-03-11T13:12:44;1.40;;;1.08;;
38591;SDS011;24356;48.460;11.450;2023-03-11T13:40:11;2.92;;;1.13;;
38591;SDS011;24356;48.460;11.450;2023-03-11T13:43:11;2.50;;;1.40;;
38591;SDS011;24356;48.460;11.450;2023-03-11T13:46:00;1.13;;;1.00;;
38591;SDS011;24356;48.460;11.450;2023-03-11T13:48:35;4.28;;;1.05;;
38591;SDS011;24356;48.460;11.450;2023-03-11T13:53:47;4.10;;;1.38;;
38591;SDS011;24356;48.460;11.450;2023-03-11T13:56:25;3.45;;;1.20;;
38591;SDS011;24356;48.460;11.450;2023-03-11T13:59:15;5.00;;;2.22;;
38591;SDS011;24356;48.460;11.450;2023-03-11T14:02:13;3.78;;;1.67;;
38591;SDS011;24356;48.460;11.450;2023-03-11T14:04:48;2.97;;;1.42;;
38591;SDS011;24356;48.460;11.450;2023-03-11T14:07:27;4.47;;;1.08;;
38591;SDS011;24356;48.460;11.450;2023-03-11T14:12:40;3.35;;;1.30;;
38591;SDS011;24356;48.460;11.450;2023-03-11T14:15:06;2.13;;;1.40;;
38591;SDS011;24356;48.460;11.450;2023-03-11T14:17:36;3.72;;;1.23;;
38591;SDS011;24356;48.460;11.450;2023-03-11T14:20:05;2.80;;;1.45;;
38591;SDS011;24356;48.460;11.450;2023-03-11T14:22:53;4.20;;;1.50;;
38591;SDS011;24356;48.460;11.450;2023-03-11T14:25:24;1.90;;;1.40;;
38591;SDS011;24356;48.460;11.450;2023-03-11T14:27:58;4.97;;;1.50;;
38591;SDS011;24356;48.460;11.450;2023-03-11T14:30:30;3.40;;;1.40;;
38591;SDS011;24356;48.460;11.450;2023-03-11T14:35:31;2.10;;;1.05;;
38591;SDS011;24356;48.460;11.450;2023-03-11T14:37:58;3.10;;;1.45;;
38591;SDS011;24356;48.460;11.450;2023-03-11T14:40:25;2.85;;;1.15;;
38591;SDS011;24356;48.460;11.450;2023-03-11T14:42:53;3.92;;;1.80;;
38591;SDS011;24356;48.460;11.450;2023-03-11T14:45:24;4.32;;;1.83;;
38591;SDS011;24356;48.460;11.450;2023-03-11T14:48:28;2.95;;;1.30;;
38591;SDS011;24356;48.460;11.450;2023-03-11T14:50:45;1.77;;;1.35;;
38591;SDS011;24356;48.460;11.450;2023-03-11T14:55:54;4.60;;;1.50;;
38591;SDS011;24356;48.460;11.450;2023-03-11T14:58:22;3.75;;;1.50;;
38591;SDS011;24356;48.460;11.450;2023-03-11T15:03:28;6.13;;;1.60;;
38591;SDS011;24356;48.460;11.450;2023-03-11T15:08:30;2.42;;;1.63;;
38591;SDS011;24356;48.460;11.450;2023-03-11T15:11:06;3.30;;;1.80;;
38591;SDS011;24356;48.460;11.450;2023-03-11T15:13:35;3.67;;;1.48;;
38591;SDS011;24356;48.460;11.450;2023-03-11T15:16:03;5.95;;;1.52;;
38591;SDS011;24356;48.460;11.450;2023-03-11T15:18:34;3.13;;;1.38;;
38591;SDS011;24356;48.460;11.450;2023-03-11T15:23:30;2.97;;;1.48;;
38591;SDS011;24356;48.460;11.450;2023-03-11T15:25:58;7.75;;;1.77;;
38591;SDS011;24356;48.460;11.450;2023-03-11T15:28:26;3.67;;;1.55;;
38591;SDS011;24356;48.460;11.450;2023-03-11T15:31:13;3.97;;;1.25;;
38591;SDS011;24356;48.460;11.450;2023-03-11T15:33:41;4.75;;;1.35;;
38591;SDS011;24356;48.460;11.450;2023-03-11T15:41:41;3.10;;;1.50;;
38591;SDS011;24356;48.460;11.450;2023-03-11T15:44:21;3.30;;;1.50;;
38591;SDS011;24356;48.460;11.450;2023-03-11T15:46:50;2.42;;;1.40;;
38591;SDS011;24356;48.460;11.450;2023-03-11T15:49:15;3.85;;;1.40;;
38591;SDS011;24356;48.460;11.450;2023-03-11T15:51:41;2.38;;;1.33;;
38591;SDS011;24356;48.460;11.450;2023-03-11T15:54:06;7.13;;;1.33;;
38591;SDS011;24356;48.460;11.450;2023-03-11T15:56:32;1.80;;;1.20;;
38591;SDS011;24356;48.460;11.450;2023-03-11T15:58:58;3.30;;;1.48;;
38591;SDS011;24356;48.460;11.450;2023-03-11T16:01:26;4.70;;;1.38;;
38591;SDS011;24356;48.460;11.450;2023-03-11T16:03:54;2.80;;;1.35;;
38591;SDS011;24356;48.460;11.450;2023-03-11T16:06:19;3.42;;;1.50;;
38591;SDS011;24356;48.460;11.450;2023-03-11T16:08:48;4.32;;;1.42;;
38591;SDS011;24356;48.460;11.450;2023-03-11T16:11:14;3.13;;;1.50;;
38591;SDS011;24356;48.460;11.450;2023-03-11T16:13:40;2.75;;;1.30;;
38591;SDS011;24356;48.460;11.450;2023-03-11T16:16:15;4.28;;;1.38;;
38591;SDS011;24356;48.460;11.450;2023-03-11T16:18:41;2.72;;;1.20;;
38591;SDS011;24356;48.460;11.450;2023-03-11T16:21:08;3.20;;;1.70;;
38591;SDS011;24356;48.460;11.450;2023-03-11T16:26:06;3.65;;;1.77;;
38591;SDS011;24356;48.460;11.450;2023-03-11T16:28:35;4.15;;;1.45;;
38591;SDS011;24356;48.460;11.450;2023-03-11T16:31:01;2.85;;;1.50;;
38591;SDS011;24356;48.460;11.450;2023-03-11T16:33:26;3.25;;;1.45;;
38591;SDS011;24356;48.460;11.450;2023-03-11T16:35:52;2.65;;;1.55;;
38591;SDS011;24356;48.460;11.450;2023-03-11T16:38:18;5.45;;;1.50;;
38591;SDS011;24356;48.460;11.450;2023-03-11T16:40:44;3.58;;;1.33;;
38591;SDS011;24356;48.460;11.450;2023-03-11T16:43:18;3.92;;;1.52;;
38591;SDS011;24356;48.460;11.450;2023-03-11T16:45:44;2.38;;;1.50;;
38591;SDS011;24356;48.460;11.450;2023-03-11T16:48:09;4.50;;;1.40;;
38591;SDS011;24356;48.460;11.450;2023-03-11T16:50:35;4.45;;;1.42;;
38591;SDS011;24356;48.460;11.450;2023-03-11T16:53:00;2.85;;;1.40;;
38591;SDS011;24356;48.460;11.450;2023-03-11T16:55:26;5.78;;;1.40;;
38591;SDS011;24356;48.460;11.450;2023-03-11T16:57:52;2.85;;;1.33;;